Time;durP1;ratioP1;P1;durP2;ratioP2;P2;SDS_P1;SDS_P2;PMS_P1;PMS_P2;Temp;Humidity;BMP_temperature;BMP_pressure;BME280_temperature;BME280_humidity;BME280_pressure;Samples;Min_cycle;Max_cycle;Signal;HPM_P1;HPM_P2
2021/04/24 00:02:09;;;;;;;18.60;16.80;;;;;;;16.79;47.20;100035.91;5035163;28;20048;-76
2021/04/24 00:04:36;;;;;;;18.48;16.67;;;;;;;16.77;47.42;100036.09;5035295;28;20348;-77
2021/04/24 00:07:03;;;;;;;17.50;15.68;;;;;;;16.78;47.48;100040.41;5034340;28;20037;-76
2021/04/24 00:09:28;;;;;;;16.55;15.02;;;;;;;16.59;47.34;100006.53;5035024;28;20083;-77
2021/04/24 00:11:53;;;;;;;16.95;15.40;;;;;;;16.29;47.28;99963.47;5034058;28;20026;-76
2021/04/24 00:14:19;;;;;;;18.60;16.77;;;;;;;16.83;47.30;100037.13;5034735;28;20060;-76
2021/04/24 00:16:44;;;;;;;18.70;16.85;;;;;;;16.51;47.63;99982.75;5035291;28;20375;-77
2021/04/24 00:19:10;;;;;;;18.23;16.50;;;;;;;16.55;47.30;99989.31;5034026;28;20053;-76
2021/04/24 00:21:35;;;;;;;17.58;15.98;;;;;;;16.76;47.75;100018.47;5035183;28;20095;-76
2021/04/24 00:24:00;;;;;;;17.65;15.85;;;;;;;16.43;47.59;99961.66;5035119;28;20030;-75
2021/04/24 00:26:26;;;;;;;22.55;18.95;;;;;;;16.73;47.25;100021.53;5033881;28;20021;-77
2021/04/24 00:28:52;;;;;;;20.10;18.10;;;;;;;16.29;47.67;99949.31;5034699;28;20029;-76
2021/04/24 00:31:17;;;;;;;20.38;18.25;;;;;;;16.57;47.50;99989.94;5034705;28;20108;-75
2021/04/24 00:33:43;;;;;;;18.42;16.80;;;;;;;16.25;47.70;99942.75;5034874;28;20424;-75
2021/04/24 00:36:08;;;;;;;19.38;17.50;;;;;;;16.73;47.42;100018.06;5035011;28;20112;-76
2021/04/24 00:38:34;;;;;;;18.33;16.42;;;;;;;16.73;47.53;100026.88;5034672;28;20398;-77
2021/04/24 00:40:59;;;;;;;18.83;17.02;;;;;;;16.31;47.64;99957.94;5035269;28;20044;-81
2021/04/24 00:43:25;;;;;;;19.10;16.70;;;;;;;16.61;47.58;100007.16;5034580;28;20029;-79
2021/04/24 00:45:50;;;;;;;18.05;16.20;;;;;;;15.99;47.36;99917.75;5034975;28;20461;-78
2021/04/24 00:48:16;;;;;;;17.60;15.85;;;;;;;16.57;47.07;99994.44;5034485;28;20033;-77
2021/04/24 00:50:42;;;;;;;17.63;15.82;;;;;;;16.67;47.40;100014.38;5034903;28;20153;-77
2021/04/24 00:53:11;;;;;;;17.38;15.73;;;;;;;16.71;46.98;100022.78;5034735;28;20432;-78
2021/04/24 00:55:38;;;;;;;17.20;15.60;;;;;;;16.73;47.26;100020.72;5034999;28;20053;-80
2021/04/24 00:58:05;;;;;;;16.83;15.35;;;;;;;16.49;47.11;99988.31;5034580;28;20510;-77
2021/04/24 01:00:31;;;;;;;17.10;15.50;;;;;;;16.73;46.53;100023.38;5034414;28;20037;-79
2021/04/24 01:02:57;;;;;;;18.30;16.60;;;;;;;16.49;46.81;99996.28;5033560;28;20022;-77
2021/04/24 01:05:27;;;;;;;18.00;16.30;;;;;;;16.66;46.74;100030.56;5033486;28;20125;-78
2021/04/24 01:07:53;;;;;;;17.30;15.70;;;;;;;16.66;46.77;100030.56;5033295;28;20036;-78
2021/04/24 01:10:20;;;;;;;17.90;16.17;;;;;;;16.64;47.06;100017.41;5034536;28;20034;-78
2021/04/24 01:12:47;;;;;;;15.73;14.20;;;;;;;16.66;46.88;100025.25;5034504;28;20355;-79
2021/04/24 01:15:15;;;;;;;15.93;14.45;;;;;;;16.59;46.23;100011.88;5034364;28;20409;-80
2021/04/24 01:17:41;;;;;;;15.68;14.07;;;;;;;16.69;46.37;100032.81;5034515;28;20025;-78
2021/04/24 01:20:09;;;;;;;15.93;14.25;;;;;;;16.65;46.08;100013.75;5033251;28;20404;-79
2021/04/24 01:22:34;;;;;;;15.27;13.85;;;;;;;16.57;46.18;100005.13;5034422;28;20090;-78
2021/04/24 01:25:03;;;;;;;13.95;12.65;;;;;;;16.70;46.16;100023.81;5034449;28;20507;-79
2021/04/24 01:27:29;;;;;;;14.07;12.75;;;;;;;16.42;45.91;99978.66;5038113;28;20030;-77
2021/04/24 01:29:54;;;;;;;15.05;13.65;;;;;;;16.31;45.81;99958.75;5038002;28;20033;-80
2021/04/24 01:32:20;;;;;;;13.50;12.15;;;;;;;16.29;45.85;99949.31;5038223;28;20071;-77
2021/04/24 01:34:45;;;;;;;13.25;12.05;;;;;;;16.44;45.82;99984.59;5038202;28;20055;-79
2021/04/24 01:37:11;;;;;;;13.40;12.20;;;;;;;16.62;45.72;100011.47;5037932;28;20037;-78
2021/04/24 01:39:36;;;;;;;14.75;13.35;;;;;;;16.30;46.13;99958.97;5039224;28;20030;-78
2021/04/24 01:42:02;;;;;;;14.55;13.13;;;;;;;16.70;46.19;100023.81;5042391;28;20022;-76
2021/04/24 01:44:27;;;;;;;14.27;12.85;;;;;;;16.54;46.39;100009.00;5038004;28;20313;-74
2021/04/24 01:46:53;;;;;;;14.43;13.02;;;;;;;16.26;46.72;99965.72;5037924;28;20033;-76
2021/04/24 01:49:19;;;;;;;16.25;14.55;;;;;;;16.26;47.37;99979.03;5037741;28;20367;-75
2021/04/24 01:51:44;;;;;;;16.08;14.45;;;;;;;16.65;47.84;100042.22;5037992;28;20021;-74
2021/04/24 01:54:11;;;;;;;20.98;15.75;;;;;;;16.10;48.10;99962.44;5037692;28;20087;-77
2021/04/24 01:56:58;;;;;;;17.98;16.08;;;;;;;16.49;48.77;100032.78;5037649;28;20025;-77
2021/04/24 01:59:29;;;;;;;19.85;17.77;;;;;;;16.56;49.39;100051.44;5037530;28;20021;-76
2021/04/24 02:01:57;;;;;;;21.58;17.52;;;;;;;16.39;49.64;100024.38;5038019;28;20063;-77
2021/04/24 02:04:25;;;;;;;19.45;17.42;;;;;;;16.43;49.77;100033.59;5037546;28;20428;-76
2021/04/24 02:06:51;;;;;;;18.08;16.17;;;;;;;16.33;49.70;100020.66;5037674;28;20033;-77
2021/04/24 02:09:19;;;;;;;18.25;16.45;;;;;;;16.40;50.44;100045.50;5036159;28;20136;-78
2021/04/24 02:12:06;;;;;;;18.55;16.10;;;;;;;16.45;51.21;100052.88;5037480;28;20025;-76
2021/04/24 02:14:41;;;;;;;18.88;17.08;;;;;;;16.45;50.61;100053.69;5037353;28;20025;-75
2021/04/24 02:17:10;;;;;;;20.10;17.98;;;;;;;16.37;50.82;100043.25;5037367;28;20119;-76
2021/04/24 02:19:41;;;;;;;20.25;18.15;;;;;;;16.41;50.87;100041.81;5037174;28;20104;-77
2021/04/24 02:22:07;;;;;;;19.17;17.27;;;;;;;16.40;51.53;100047.34;5037237;28;20052;-77
2021/04/24 02:24:42;;;;;;;19.55;17.55;;;;;;;16.40;51.38;100050.00;5037122;28;20395;-76
2021/04/24 02:27:09;;;;;;;19.00;17.08;;;;;;;16.09;51.76;100010.59;5037079;28;20057;-77
2021/04/24 02:29:34;;;;;;;19.80;17.80;;;;;;;16.36;51.98;100060.25;5036924;28;20037;-76
2021/04/24 02:32:00;;;;;;;21.58;18.70;;;;;;;16.16;51.91;100043.38;5037161;28;20036;-77
2021/04/24 02:34:25;;;;;;;21.77;18.77;;;;;;;16.02;52.15;100034.53;5036891;28;20037;-78
2021/04/24 02:36:51;;;;;;;25.77;16.30;;;;;;;16.15;51.67;100058.53;5036657;28;20391;-79
2021/04/24 02:39:16;;;;;;;20.38;17.05;;;;;;;15.92;51.96;100014.66;5036959;28;20017;-76
2021/04/24 02:41:41;;;;;;;19.75;16.33;;;;;;;16.10;51.66;100058.34;5036931;28;20413;-76
2021/04/24 02:44:08;;;;;;;17.83;15.95;;;;;;;15.83;51.94;100017.50;5035814;28;20075;-76
2021/04/24 02:46:33;;;;;;;21.85;14.10;;;;;;;16.17;51.42;100093.81;5036704;28;20113;-76
2021/04/24 02:48:59;;;;;;;17.27;14.57;;;;;;;15.81;51.72;100035.50;5036647;28;20104;-77
2021/04/24 02:51:24;;;;;;;16.33;14.25;;;;;;;16.02;51.76;100066.50;5036678;28;20539;-77
2021/04/24 02:53:50;;;;;;;16.45;14.63;;;;;;;15.63;51.42;100005.13;5035651;28;20029;-76
2021/04/24 02:56:15;;;;;;;16.40;12.35;;;;;;;16.08;50.91;100076.34;5036484;28;20408;-79
2021/04/24 02:58:41;;;;;;;18.52;13.88;;;;;;;15.97;50.83;100063.63;5036509;28;20029;-79
2021/04/24 03:01:06;;;;;;;17.10;14.63;;;;;;;16.11;50.77;100091.94;5035502;28;20025;-77
2021/04/24 03:03:31;;;;;;;13.10;11.68;;;;;;;16.12;50.47;100093.56;5036352;28;20037;-77
2021/04/24 03:05:58;;;;;;;15.48;11.98;;;;;;;15.97;50.46;100065.47;5036586;28;20340;-77
2021/04/24 03:08:23;;;;;;;14.63;11.90;;;;;;;16.02;49.82;100079.00;5036096;28;20033;-79
2021/04/24 03:10:49;;;;;;;17.48;12.82;;;;;;;15.99;49.66;100080.22;5036639;28;20025;-78
2021/04/24 03:13:14;;;;;;;15.45;12.68;;;;;;;15.62;49.82;100022.94;5036097;28;20387;-76
2021/04/24 03:15:40;;;;;;;13.77;10.88;;;;;;;15.89;49.38;100071.78;5036241;28;20108;-78
2021/04/24 03:18:06;;;;;;;14.50;11.02;;;;;;;16.03;49.25;100100.09;5036502;28;20031;-78
2021/04/24 03:20:32;;;;;;;13.27;9.98;;;;;;;15.75;48.99;100062.94;5036160;28;20324;-75
2021/04/24 03:22:59;;;;;;;12.52;9.30;;;;;;;16.02;48.42;100114.44;5036073;28;20026;-78
2021/04/24 03:25:25;;;;;;;15.43;10.57;;;;;;;15.91;48.32;100096.38;5035880;28;20112;-77
2021/04/24 03:27:51;;;;;;;11.95;9.35;;;;;;;15.86;47.97;100078.34;5034916;28;20069;-79
2021/04/24 03:30:17;;;;;;;12.95;9.38;;;;;;;16.02;47.66;100108.31;5035867;28;20087;-76
2021/04/24 03:32:42;;;;;;;12.57;9.55;;;;;;;15.96;47.77;100104.59;5035896;28;20101;-77
2021/04/24 03:35:09;;;;;;;11.52;9.52;;;;;;;15.85;47.51;100091.84;5035824;28;20407;-77
2021/04/24 03:37:34;;;;;;;15.68;10.00;;;;;;;16.03;48.05;100125.94;5036651;28;20348;-77
2021/04/24 03:40:00;;;;;;;11.30;9.00;;;;;;;15.79;47.72;100088.13;5040018;28;20026;-77
2021/04/24 03:42:25;;;;;;;12.27;8.93;;;;;;;15.93;47.72;100105.00;5035639;28;20443;-75
2021/04/24 03:44:51;;;;;;;16.25;9.50;;;;;;;15.85;47.50;100098.00;5035689;28;20025;-77
2021/04/24 03:47:16;;;;;;;15.15;9.40;;;;;;;15.93;47.80;100120.97;5034044;28;20317;-78
2021/04/24 03:49:42;;;;;;;11.88;8.95;;;;;;;15.96;47.59;100125.91;5035622;28;20033;-78
2021/04/24 03:52:07;;;;;;;12.10;8.82;;;;;;;15.88;48.25;100115.41;5034433;28;20562;-78
2021/04/24 03:54:33;;;;;;;12.32;7.97;;;;;;;15.80;48.28;100099.59;5035420;28;20029;-78
2021/04/24 03:56:59;;;;;;;12.65;7.60;;;;;;;15.89;48.53;100114.41;5035441;28;20115;-79
2021/04/24 03:59:25;;;;;;;9.90;7.88;;;;;;;15.63;48.32;100080.50;5035303;28;20026;-77
2021/04/24 04:01:51;;;;;;;11.88;7.88;;;;;;;15.92;48.71;100135.31;5034478;28;20087;-78
2021/04/24 04:04:16;;;;;;;11.90;8.43;;;;;;;15.93;48.84;100136.13;5035178;28;20027;-78
2021/04/24 04:06:42;;;;;;;11.38;8.10;;;;;;;15.51;48.72;100079.34;5035251;28;20060;-78
2021/04/24 04:09:07;;;;;;;12.68;8.50;;;;;;;15.46;48.30;100071.13;5035265;28;20032;-78
2021/04/24 04:11:33;;;;;;;11.30;7.57;;;;;;;15.73;48.76;100117.41;5035291;28;20419;-78
2021/04/24 04:13:58;;;;;;;12.93;7.28;;;;;;;15.56;48.42;100088.38;5034085;28;20025;-78
2021/04/24 04:16:24;;;;;;;12.77;8.13;;;;;;;15.88;48.51;100137.53;5035053;28;20033;-78
2021/04/24 04:18:50;;;;;;;12.02;7.80;;;;;;;15.72;48.30;100129.06;5035218;28;20419;-76
2021/04/24 04:21:16;;;;;;;9.93;7.15;;;;;;;15.86;48.10;100144.91;5034928;28;20036;-78
2021/04/24 04:23:41;;;;;;;12.10;7.60;;;;;;;15.32;47.65;100056.09;5035338;28;20037;-77
2021/04/24 04:26:06;;;;;;;12.93;6.35;;;;;;;15.51;46.63;100082.81;5034891;28;20029;-78
2021/04/24 04:28:32;;;;;;;11.73;7.55;;;;;;;15.87;46.37;100143.06;5034667;28;20040;-79
2021/04/24 04:30:57;;;;;;;12.85;7.45;;;;;;;15.73;46.45;100130.72;5034965;28;20030;-79
2021/04/24 04:33:23;;;;;;;14.40;8.85;;;;;;;15.48;46.95;100071.75;5033655;28;20029;-78
2021/04/24 04:35:50;;;;;;;13.90;7.93;;;;;;;15.88;47.20;100150.84;5034940;28;20036;-78
2021/04/24 04:38:16;;;;;;;13.45;7.65;;;;;;;15.88;46.71;100156.19;5034948;28;20056;-77
2021/04/24 04:40:43;;;;;;;10.32;8.32;;;;;;;15.72;46.87;100118.41;5034777;28;20432;-76
2021/04/24 04:43:09;;;;;;;14.70;10.52;;;;;;;15.25;46.54;100054.22;5034681;28;20037;-78
2021/04/24 04:45:35;;;;;;;25.17;17.77;;;;;;;15.77;46.24;100137.28;5033515;28;20359;-76
2021/04/24 04:48:01;;;;;;;18.23;12.50;;;;;;;15.77;45.82;100139.94;5033738;28;20025;-76
2021/04/24 04:50:31;;;;;;;12.18;9.73;;;;;;;15.74;45.60;100143.00;5034759;28;20109;-76
2021/04/24 04:52:57;;;;;;;14.02;8.95;;;;;;;15.35;45.50;100074.34;5034764;28;20024;-76
2021/04/24 04:55:23;;;;;;;11.55;8.48;;;;;;;15.41;45.43;100073.56;5033452;28;20033;-78
2021/04/24 04:57:50;;;;;;;14.30;7.45;;;;;;;15.77;45.26;100150.59;5034503;28;20458;-77
2021/04/24 05:00:18;;;;;;;14.35;8.70;;;;;;;15.25;45.43;100059.56;5036132;28;20028;-77
2021/04/24 05:02:44;;;;;;;16.52;8.43;;;;;;;15.40;45.18;100091.38;5038643;28;20029;-76
2021/04/24 05:05:10;;;;;;;16.70;9.23;;;;;;;15.29;45.47;100081.25;5038640;28;20032;-76
2021/04/24 05:07:36;;;;;;;15.48;8.57;;;;;;;15.79;44.94;100159.22;5038512;28;20109;-74
2021/04/24 05:10:03;;;;;;;12.02;7.43;;;;;;;15.81;44.70;100151.84;5038672;28;20432;-78
2021/04/24 05:12:28;;;;;;;14.10;7.32;;;;;;;15.56;44.16;100117.66;5038292;28;20097;-77
2021/04/24 05:14:53;;;;;;;14.13;7.30;;;;;;;15.58;43.63;100131.63;5037428;28;20044;-76
2021/04/24 05:17:19;;;;;;;12.48;7.40;;;;;;;15.42;43.59;100102.63;5038384;28;20435;-78
2021/04/24 05:19:45;;;;;;;13.18;8.00;;;;;;;15.49;43.51;100114.13;5038583;28;20036;-78
2021/04/24 05:22:10;;;;;;;16.25;8.82;;;;;;;15.43;43.16;100098.13;5038450;28;20032;-77
2021/04/24 05:24:36;;;;;;;16.65;11.93;;;;;;;15.49;43.17;100113.31;5038411;28;20033;-76
2021/04/24 05:27:01;;;;;;;20.67;13.98;;;;;;;15.91;43.12;100175.44;5037267;28;20424;-76
2021/04/24 05:29:27;;;;;;;21.20;14.57;;;;;;;15.54;42.99;100119.69;5037920;28;20025;-77
2021/04/24 05:31:53;;;;;;;20.27;13.93;;;;;;;15.25;42.50;100067.53;5038217;28;20040;-76
2021/04/24 05:34:18;;;;;;;20.98;13.75;;;;;;;14.94;42.56;100017.44;5038491;28;20055;-79
2021/04/24 05:36:43;;;;;;;18.10;13.52;;;;;;;15.94;42.46;100169.72;5042013;28;20033;-76
2021/04/24 05:39:09;;;;;;;21.38;11.82;;;;;;;15.95;42.46;100172.19;5039114;28;20034;-79
2021/04/24 05:41:36;;;;;;;16.42;10.15;;;;;;;15.93;42.30;100174.22;5037899;28;20029;-74
2021/04/24 05:44:01;;;;;;;15.63;10.13;;;;;;;15.33;42.44;100085.19;5036860;28;20120;-76
2021/04/24 05:46:27;;;;;;;15.18;9.52;;;;;;;15.94;42.13;100185.72;5037747;28;20487;-76
2021/04/24 05:48:53;;;;;;;18.20;10.32;;;;;;;15.92;42.24;100188.56;5035984;28;20076;-76
2021/04/24 05:51:20;;;;;;;16.13;8.85;;;;;;;15.53;41.95;100143.84;5038629;28;20072;-76
2021/04/24 05:53:49;;;;;;;16.67;9.25;;;;;;;15.91;42.02;100189.59;5036605;28;20423;-77
2021/04/24 05:56:16;;;;;;;17.00;9.38;;;;;;;15.83;41.86;100182.59;5039508;28;20455;-76
2021/04/24 05:58:41;;;;;;;18.88;11.27;;;;;;;15.65;41.65;100134.34;5038410;28;20029;-75
2021/04/24 06:01:07;;;;;;;15.07;11.20;;;;;;;15.74;41.24;100156.31;5044278;28;20387;-76
2021/04/24 06:03:33;;;;;;;19.15;11.20;;;;;;;15.85;41.50;100167.22;5036296;28;20474;-76
2021/04/24 06:05:59;;;;;;;17.80;11.77;;;;;;;15.98;41.50;100194.94;5037453;28;20032;-78
2021/04/24 06:08:24;;;;;;;22.50;12.65;;;;;;;16.01;41.36;100179.41;5036763;28;20057;-78
2021/04/24 06:10:50;;;;;;;17.75;13.88;;;;;;;15.56;41.44;100115.00;5037021;28;20037;-76
2021/04/24 06:13:15;;;;;;;23.35;17.63;;;;;;;16.03;41.80;100173.88;5037741;28;20030;-77
2021/04/24 06:15:41;;;;;;;23.55;15.23;;;;;;;15.76;41.60;100133.78;5037399;28;20036;-75
2021/04/24 06:18:06;;;;;;;19.35;14.30;;;;;;;15.93;41.60;100150.25;5037690;28;20061;-80
2021/04/24 06:20:32;;;;;;;24.13;14.60;;;;;;;16.05;41.46;100171.81;5035989;28;20026;-79
2021/04/24 06:22:57;;;;;;;27.17;11.68;;;;;;;16.11;41.69;100185.19;5036122;28;20056;-78
2021/04/24 06:25:23;;;;;;;28.15;11.80;;;;;;;15.56;41.66;100098.19;5037038;28;20029;-77
2021/04/24 06:27:49;;;;;;;27.48;12.75;;;;;;;16.22;41.41;100191.78;5037122;28;20344;-78
2021/04/24 06:30:17;;;;;;;20.35;12.40;;;;;;;16.04;41.40;100156.88;5044751;22;20136;-80
2021/04/24 06:32:44;;;;;;;20.33;11.82;;;;;;;16.26;41.58;100184.22;5036022;28;20384;-78
2021/04/24 06:35:10;;;;;;;22.08;11.45;;;;;;;16.11;41.57;100176.38;5035327;28;20025;-76
2021/04/24 06:37:36;;;;;;;19.00;9.77;;;;;;;16.09;41.53;100163.25;5040553;28;20059;-76
2021/04/24 06:40:07;;;;;;;17.50;10.10;;;;;;;16.23;41.50;100176.63;5043379;28;20063;-81
2021/04/24 06:42:33;;;;;;;15.35;10.20;;;;;;;16.05;41.89;100143.34;5042505;28;20037;-77
2021/04/24 06:44:58;;;;;;;12.52;9.60;;;;;;;16.40;41.92;100197.41;5041200;28;20025;-80
2021/04/24 06:47:24;;;;;;;13.05;9.00;;;;;;;15.92;42.11;100135.31;5045744;28;20534;-78
2021/04/24 06:49:50;;;;;;;13.60;9.10;;;;;;;16.01;42.00;100147.44;5034655;28;20117;-78
2021/04/24 06:52:16;;;;;;;12.40;8.75;;;;;;;16.24;41.90;100196.91;5044184;28;20155;-76
2021/04/24 06:54:41;;;;;;;12.73;8.85;;;;;;;15.68;41.62;100118.00;5055691;28;20086;-80
2021/04/24 06:57:07;;;;;;;13.93;9.18;;;;;;;16.18;41.68;100193.19;5054950;28;20032;-80
2021/04/24 06:59:32;;;;;;;12.57;9.25;;;;;;;15.43;41.16;100072.34;5043228;28;20017;-80
2021/04/24 07:01:58;;;;;;;11.85;8.85;;;;;;;16.25;40.92;100202.03;5043730;28;20045;-81
2021/04/24 07:04:23;;;;;;;13.90;9.73;;;;;;;15.77;40.94;100143.44;5045676;28;20029;-82
2021/04/24 07:06:49;;;;;;;13.25;9.45;;;;;;;16.02;41.22;100175.72;5036719;28;20025;-78
2021/04/24 07:09:14;;;;;;;11.85;9.45;;;;;;;16.16;41.14;100222.69;5046481;28;20030;-75
2021/04/24 07:11:40;;;;;;;12.80;9.43;;;;;;;15.71;41.07;100143.41;5039542;28;20045;-77
2021/04/24 07:14:05;;;;;;;13.02;9.18;;;;;;;15.93;40.60;100192.06;5034383;28;20035;-77
2021/04/24 07:16:30;;;;;;;14.45;9.65;;;;;;;16.10;40.71;100198.69;5035797;28;20033;-76
2021/04/24 07:18:56;;;;;;;11.60;8.20;;;;;;;16.19;40.48;100227.63;5042224;28;20030;-79
2021/04/24 07:21:22;;;;;;;16.27;9.23;;;;;;;15.89;40.36;100165.00;5048331;28;20037;-74
2021/04/24 07:23:47;;;;;;;13.27;8.13;;;;;;;16.14;40.32;100202.59;5035081;28;20423;-77
2021/04/24 07:26:13;;;;;;;12.00;8.38;;;;;;;16.26;40.29;100233.00;5033847;28;20039;-78
2021/04/24 07:28:39;;;;;;;17.15;9.68;;;;;;;16.15;40.18;100209.56;5040170;28;20095;-78
2021/04/24 07:31:05;;;;;;;12.27;9.15;;;;;;;16.17;40.07;100212.88;5047906;28;20036;-75
2021/04/24 07:33:30;;;;;;;12.48;8.40;;;;;;;16.10;39.74;100191.53;5040450;28;20037;-76
2021/04/24 07:35:56;;;;;;;12.25;8.70;;;;;;;15.97;39.73;100177.31;5046228;28;20045;-76
2021/04/24 07:38:22;;;;;;;12.10;8.63;;;;;;;16.38;39.65;100225.28;5035909;28;20039;-79
2021/04/24 07:40:48;;;;;;;15.55;8.95;;;;;;;16.11;39.59;100177.19;5038192;28;20021;-78
2021/04/24 07:43:14;;;;;;;11.82;7.50;;;;;;;16.40;38.99;100224.06;5035134;28;20120;-76
2021/04/24 07:45:40;;;;;;;13.13;8.30;;;;;;;16.39;39.03;100221.59;5044894;28;20115;-76
2021/04/24 07:48:06;;;;;;;11.95;8.30;;;;;;;16.40;39.14;100226.72;5047624;28;20040;-76
2021/04/24 07:50:32;;;;;;;13.05;7.65;;;;;;;16.31;39.23;100205.75;5055409;28;20366;-77
2021/04/24 07:52:59;;;;;;;10.25;7.57;;;;;;;15.91;39.14;100162.94;5042572;28;20127;-74
2021/04/24 07:55:25;;;;;;;10.65;7.95;;;;;;;16.29;39.26;100229.94;5044198;28;20060;-78
2021/04/24 07:57:50;;;;;;;12.65;7.93;;;;;;;16.21;38.82;100227.44;5040998;28;20459;-76
2021/04/24 08:00:16;;;;;;;11.45;8.38;;;;;;;15.86;39.10;100181.38;5049922;28;20025;-76
2021/04/24 08:02:42;;;;;;;14.40;7.93;;;;;;;16.24;38.49;100232.38;5041874;28;20059;-77
2021/04/24 08:05:08;;;;;;;10.65;7.22;;;;;;;16.25;38.25;100231.34;5050451;28;20427;-77
2021/04/24 08:07:33;;;;;;;13.25;8.00;;;;;;;16.30;38.46;100252.06;5052217;28;20032;-76
2021/04/24 08:09:59;;;;;;;11.70;7.57;;;;;;;16.21;38.28;100222.09;5046866;28;20029;-76
2021/04/24 08:12:24;;;;;;;12.20;7.75;;;;;;;15.89;38.50;100171.16;5037641;28;20028;-77
2021/04/24 08:14:50;;;;;;;14.90;8.15;;;;;;;15.84;38.72;100157.59;5041759;28;20053;-80
2021/04/24 08:17:16;;;;;;;11.18;7.70;;;;;;;15.96;38.65;100170.34;5035045;28;20356;-78
2021/04/24 08:19:42;;;;;;;10.48;7.35;;;;;;;15.76;39.12;100131.13;5032769;28;20028;-78
2021/04/24 08:22:08;;;;;;;13.18;7.75;;;;;;;16.05;38.76;100167.31;5041719;28;20036;-78
2021/04/24 08:24:33;;;;;;;15.10;7.72;;;;;;;16.47;38.61;100218.75;5048273;28;20039;-77
2021/04/24 08:26:59;;;;;;;11.90;7.35;;;;;;;16.13;38.21;100161.81;5045161;28;20100;-76
2021/04/24 08:29:25;;;;;;;12.02;7.57;;;;;;;16.46;38.25;100211.78;5050070;28;20123;-74
2021/04/24 08:31:50;;;;;;;10.23;6.93;;;;;;;16.49;37.82;100228.19;5049805;28;20454;-74
2021/04/24 08:34:21;;;;;;;11.15;6.53;;;;;;;16.51;38.00;100228.00;5036351;28;20037;-76
2021/04/24 08:36:48;;;;;;;11.02;6.88;;;;;;;16.56;37.51;100233.56;5044675;28;20033;-76
2021/04/24 08:39:13;;;;;;;12.65;6.55;;;;;;;15.95;37.61;100120.78;5044278;28;20035;-75
2021/04/24 08:41:39;;;;;;;12.52;6.72;;;;;;;16.32;37.61;100184.22;5048389;28;20463;-75
2021/04/24 08:44:05;;;;;;;13.73;8.20;;;;;;;16.38;37.78;100207.44;5033842;28;20431;-77
2021/04/24 08:46:31;;;;;;;13.13;6.82;;;;;;;16.34;37.67;100195.50;5052042;28;20025;-74
2021/04/24 08:48:57;;;;;;;9.38;6.70;;;;;;;16.44;37.73;100213.81;5048486;28;20033;-74
2021/04/24 08:51:25;;;;;;;15.00;7.80;;;;;;;16.50;38.02;100202.38;5047263;28;20431;-74
2021/04/24 08:53:51;;;;;;;16.30;8.82;;;;;;;16.44;37.84;100182.66;5034132;28;20028;-76
2021/04/24 08:56:18;;;;;;;11.30;7.20;;;;;;;16.41;38.32;100177.72;5048296;28;20079;-80
2021/04/24 08:58:45;;;;;;;17.70;8.77;;;;;;;16.57;38.69;100213.03;5037633;28;20037;-79
2021/04/24 09:01:10;;;;;;;12.43;7.75;;;;;;;16.37;38.72;100162.34;5036881;28;20041;-77
2021/04/24 09:03:36;;;;;;;16.38;8.80;;;;;;;16.43;38.34;100170.34;5049776;28;20026;-79
2021/04/24 09:06:02;;;;;;;11.98;8.98;;;;;;;16.04;38.05;100106.25;5033521;28;20029;-79
2021/04/24 09:08:29;;;;;;;11.00;8.25;;;;;;;16.56;37.99;100180.25;5034335;28;20113;-80
2021/04/24 09:10:57;;;;;;;14.57;9.98;;;;;;;16.62;38.17;100176.75;5034518;28;20428;-74
2021/04/24 09:13:24;;;;;;;14.70;9.57;;;;;;;16.71;38.26;100172.09;5034916;28;20423;-79
2021/04/24 09:15:51;;;;;;;17.88;12.38;;;;;;;16.77;37.71;100158.78;5034253;28;20033;-78
2021/04/24 09:18:18;;;;;;;12.07;7.97;;;;;;;16.39;37.66;100105.16;5041869;28;20053;-76
2021/04/24 09:20:47;;;;;;;11.98;7.93;;;;;;;16.70;37.68;100152.59;5044332;28;20044;-76
2021/04/24 09:23:15;;;;;;;9.60;7.05;;;;;;;16.76;37.77;100153.63;5042768;28;20426;-75
2021/04/24 09:25:47;;;;;;;12.43;6.85;;;;;;;16.52;37.44;100110.50;5037433;28;20056;-75
2021/04/24 09:28:28;;;;;;;11.05;6.82;;;;;;;16.76;37.54;100135.78;5032320;28;20029;-75
2021/04/24 09:30:53;;;;;;;15.07;7.78;;;;;;;16.79;37.29;100131.91;5050157;28;20047;-76
2021/04/24 09:33:19;;;;;;;12.50;6.68;;;;;;;16.66;37.67;100094.56;5052461;28;20029;-76
2021/04/24 09:35:53;;;;;;;12.07;7.95;;;;;;;16.80;37.54;100118.38;5039308;28;20033;-77
2021/04/24 09:38:32;;;;;;;13.25;8.20;;;;;;;16.88;37.60;100112.00;5046894;28;20033;-75
2021/04/24 09:41:25;;;;;;;13.38;7.15;;;;;;;16.41;37.88;100023.16;5037324;28;20034;-79
2021/04/24 09:44:08;;;;;;;9.75;6.60;;;;;;;16.83;37.90;100083.28;5033348;28;20029;-76
2021/04/24 09:46:46;;;;;;;10.90;6.15;;;;;;;17.06;37.66;100125.53;5028010;28;20040;-78
2021/04/24 09:49:13;;;;;;;7.55;5.22;;;;;;;17.10;37.74;100131.31;5045477;28;20029;-77
2021/04/24 09:51:42;;;;;;;10.23;5.40;;;;;;;16.88;37.81;100087.19;5045122;28;20171;-78
2021/04/24 09:54:09;;;;;;;9.52;5.13;;;;;;;17.07;37.96;100131.69;5056748;28;20112;-75
2021/04/24 09:56:35;;;;;;;9.00;5.28;;;;;;;16.78;37.98;100092.91;5047090;28;20033;-78
2021/04/24 09:59:03;;;;;;;13.60;7.75;;;;;;;16.72;37.84;100073.22;5047115;28;20028;-77
2021/04/24 10:01:31;;;;;;;9.77;5.97;;;;;;;17.05;37.75;100105.22;5040821;28;20111;-76
2021/04/24 10:03:58;;;;;;;8.65;4.97;;;;;;;16.99;37.21;100083.88;5045066;28;20033;-75
2021/04/24 10:06:25;;;;;;;8.13;5.15;;;;;;;17.18;37.16;100127.63;5051254;28;20427;-75
2021/04/24 10:09:06;;;;;;;6.57;4.18;;;;;;;17.09;37.37;100119.81;5035993;28;20041;-77
2021/04/24 10:11:31;;;;;;;10.50;5.50;;;;;;;16.94;37.58;100115.69;5043432;28;20064;-76
2021/04/24 10:13:57;;;;;;;9.00;5.07;;;;;;;16.70;37.77;100088.63;5053062;28;20067;-76
2021/04/24 10:16:49;;;;;;;12.02;6.30;;;;;;;16.37;37.74;100037.91;5049943;28;20162;-74
2021/04/24 10:19:16;;;;;;;12.05;5.40;;;;;;;16.98;37.67;100125.75;5036622;28;20102;-77
2021/04/24 10:21:43;;;;;;;11.27;5.78;;;;;;;17.02;37.78;100132.31;5043210;28;20040;-76
2021/04/24 10:24:10;;;;;;;9.10;5.80;;;;;;;17.06;37.73;100130.88;5049694;28;20035;-77
2021/04/24 10:26:37;;;;;;;10.32;6.10;;;;;;;17.01;37.89;100129.84;5039780;28;20031;-76
2021/04/24 10:29:04;;;;;;;10.20;5.22;;;;;;;17.00;37.58;100133.53;5035747;28;20037;-77
2021/04/24 10:31:31;;;;;;;9.27;5.03;;;;;;;16.85;37.91;100131.09;5050128;28;20103;-77
2021/04/24 10:34:01;;;;;;;7.88;4.82;;;;;;;16.85;38.19;100136.41;5039996;28;20128;-75
2021/04/24 10:36:28;;;;;;;26.90;18.25;;;;;;;16.80;38.04;100144.22;5043614;22;20065;-76
2021/04/24 10:38:55;;;;;;;10.93;7.50;;;;;;;16.36;38.34;100078.91;5035370;28;20033;-76
2021/04/24 10:42:01;;;;;;;7.85;5.25;;;;;;;16.62;37.99;100138.63;5031650;28;20035;-76
2021/04/24 10:44:53;;;;;;;9.00;4.80;;;;;;;16.56;38.27;100142.09;5017969;28;20073;-76
2021/04/24 10:47:37;;;;;;;;;;;;;;;16.44;38.87;100134.69;5045672;28;20033;-77
2021/04/24 10:50:03;;;;;;;6.95;5.00;;;;;;;15.92;38.80;100049.25;5048875;28;20006;-76
2021/04/24 10:52:29;;;;;;;8.00;5.40;;;;;;;16.23;38.71;100104.69;5042897;28;20108;-77
2021/04/24 10:55:12;;;;;;;7.82;4.72;;;;;;;16.38;38.32;100127.50;5037446;28;20039;-74
2021/04/24 10:57:41;;;;;;;8.93;5.20;;;;;;;16.36;38.74;100137.53;5040064;28;20150;-78
2021/04/24 11:00:17;;;;;;;13.95;7.22;;;;;;;16.34;38.26;100130.72;5034433;28;20025;-75
2021/04/24 11:02:46;;;;;;;14.63;6.75;;;;;;;16.25;38.52;100130.09;5012554;28;20033;-77
2021/04/24 11:05:26;;;;;;;14.57;8.38;;;;;;;16.26;38.61;100136.25;5037817;28;20455;-76
2021/04/24 11:08:20;;;;;;;12.20;7.13;;;;;;;16.37;38.69;100139.19;5043710;28;20028;-77
2021/04/24 11:10:54;;;;;;;16.83;8.27;;;;;;;16.31;38.62;100136.47;5035936;28;20037;-77
2021/04/24 11:13:21;;;;;;;8.52;5.30;;;;;;;16.35;38.58;100127.06;5016551;28;20699;-78
2021/04/24 11:15:47;;;;;;;6.88;4.72;;;;;;;16.49;38.26;100142.06;5041008;28;20033;-75